Time;durP1;ratioP1;P1;durP2;ratioP2;P2;SDS_P1;SDS_P2;PMS_P1;PMS_P2;Temp;Humidity;BMP_temperature;BMP_pressure;BME280_temperature;BME280_humidity;BME280_pressure;Samples;Min_cycle;Max_cycle;Signal;HPM_P1;HPM_P2
2021/03/17 00:02:04;;;;;;;1.70;0.00;;;-0.20;53.70;;;;;;20728096;28;20304;-47
2021/03/17 00:12:25;;;;;;;0.00;0.00;;;-0.50;53.40;;;;;;20787268;28;20059;-49
2021/03/17 00:22:46;;;;;;;0.33;0.10;;;-0.50;52.30;;;;;;20708545;28;20049;-47
2021/03/17 00:33:09;;;;;;;0.10;0.00;;;-0.60;52.00;;;;;;20707653;28;20304;-52
2021/03/17 00:43:30;;;;;;;0.13;0.00;;;-0.80;50.80;;;;;;20708190;28;20038;-51
2021/03/17 00:53:50;;;;;;;0.10;0.00;;;-1.00;51.60;;;;;;20722846;28;20058;-55
2021/03/17 01:03:52;;;;;;;0.47;0.10;;;-0.90;53.10;;;;;;20706377;28;20408;-50
2021/03/17 01:13:54;;;;;;;0.25;0.10;;;-1.00;53.60;;;;;;20772611;28;20046;-48
2021/03/17 01:23:56;;;;;;;0.10;0.00;;;-1.20;54.90;;;;;;20671929;28;20255;-54
2021/03/17 01:33:58;;;;;;;0.28;0.00;;;-1.30;55.30;;;;;;20686647;28;20042;-49
2021/03/17 01:44:00;;;;;;;0.10;0.00;;;-1.30;56.70;;;;;;20673925;28;20487;-48
2021/03/17 01:54:04;;;;;;;0.40;0.00;;;-1.40;55.80;;;;;;20717254;28;20049;-48
2021/03/17 02:04:06;;;;;;;0.10;0.00;;;-1.40;55.40;;;;;;20718937;28;20557;-47
2021/03/17 02:14:49;;;;;;;0.10;0.00;;;-1.50;57.00;;;;;;20765386;28;20045;-49
2021/03/17 02:25:02;;;;;;;0.20;0.00;;;-1.50;57.60;;;;;;20659686;28;20513;-50
2021/03/17 02:35:08;;;;;;;0.00;0.00;;;-1.60;57.20;;;;;;20778211;28;20042;-52
2021/03/17 02:45:18;;;;;;;0.00;0.00;;;-1.60;57.50;;;;;;20737720;28;20480;-51
2021/03/17 02:55:24;;;;;;;0.40;0.00;;;-1.60;55.70;;;;;;20729366;28;20487;-47
2021/03/17 03:05:28;;;;;;;0.00;0.00;;;-1.60;55.80;;;;;;20726137;28;20045;-56
2021/03/17 03:15:32;;;;;;;0.10;0.00;;;-1.70;55.90;;;;;;20717564;28;20045;-47
2021/03/17 03:25:35;;;;;;;0.60;0.05;;;-1.80;57.90;;;;;;20678474;28;20057;-51
2021/03/17 03:35:38;;;;;;;0.17;0.10;;;-2.00;58.00;;;;;;20693246;28;20046;-48
2021/03/17 03:45:40;;;;;;;0.75;0.00;;;-2.20;62.50;;;;;;20726013;28;20090;-47
2021/03/17 03:56:06;;;;;;;1.27;0.00;;;-2.30;59.70;;;;;;20768859;28;20057;-49
2021/03/17 04:06:11;;;;;;;0.10;0.00;;;-2.50;61.50;;;;;;20743359;28;20095;-51
2021/03/17 04:16:15;;;;;;;0.00;0.00;;;-2.70;62.50;;;;;;20756431;28;20092;-48
2021/03/17 04:26:19;;;;;;;0.17;0.00;;;-2.80;60.40;;;;;;20690518;28;20104;-51
2021/03/17 04:36:22;;;;;;;0.38;0.03;;;-2.80;62.30;;;;;;20724607;28;20042;-49
2021/03/17 04:46:24;;;;;;;1.45;0.00;;;-2.90;59.60;;;;;;20688672;28;20068;-50
2021/03/17 04:56:28;;;;;;;0.25;0.00;;;-2.70;61.70;;;;;;20689860;28;20069;-50
2021/03/17 05:06:31;;;;;;;0.00;0.00;;;-2.70;60.40;;;;;;20760861;28;20141;-49
2021/03/17 05:16:35;;;;;;;0.00;0.00;;;-2.60;60.10;;;;;;20716915;28;20073;-48
2021/03/17 05:26:37;;;;;;;0.00;0.00;;;-2.60;63.20;;;;;;20702977;28;20443;-47
2021/03/17 05:36:39;;;;;;;0.17;0.00;;;-2.90;65.40;;;;;;20719105;28;20034;-49
2021/03/17 05:46:43;;;;;;;0.30;0.00;;;-3.00;66.20;;;;;;20685200;28;20105;-48
2021/03/17 05:56:45;;;;;;;0.00;0.00;;;-2.90;65.10;;;;;;20700739;28;20033;-48
2021/03/17 06:06:51;;;;;;;0.20;0.00;;;-2.80;65.90;;;;;;20742011;28;20479;-48
2021/03/17 06:16:59;;;;;;;1.13;0.10;;;-3.00;69.50;;;;;;20725971;28;20033;-56
2021/03/17 06:27:03;;;;;;;0.20;0.00;;;-3.00;69.60;;;;;;20732828;28;20104;-52
2021/03/17 06:37:05;;;;;;;0.08;0.00;;;-2.90;69.50;;;;;;20729045;28;20057;-46
2021/03/17 06:47:18;;;;;;;0.10;0.00;;;-3.00;72.60;;;;;;20680516;28;20045;-49
2021/03/17 06:57:26;;;;;;;0.13;0.10;;;-2.70;73.70;;;;;;20729974;28;20472;-53
2021/03/17 07:07:28;;;;;;;0.10;0.00;;;-2.60;73.20;;;;;;20790141;28;20057;-49
2021/03/17 07:17:31;;;;;;;0.00;0.00;;;-2.10;70.80;;;;;;20732141;28;20065;-59
2021/03/17 07:27:35;;;;;;;0.10;0.00;;;-1.30;67.10;;;;;;20693798;28;20053;-48
2021/03/17 07:37:37;;;;;;;0.00;0.00;;;0.20;66.10;;;;;;20709710;28;20072;-47
2021/03/17 07:47:39;;;;;;;0.73;0.00;;;1.30;52.70;;;;;;20725707;28;20050;-52
2021/03/17 07:57:42;;;;;;;0.20;0.05;;;2.60;57.30;;;;;;20707759;28;20385;-49
2021/03/17 08:07:47;;;;;;;0.60;0.15;;;3.60;52.10;;;;;;20756432;28;20126;-47
2021/03/17 08:17:51;;;;;;;0.30;0.10;;;4.20;51.40;;;;;;20739793;28;20530;-49
2021/03/17 08:28:33;;;;;;;0.28;0.03;;;4.60;50.90;;;;;;20787789;28;20084;-48
2021/03/17 08:38:57;;;;;;;0.23;0.10;;;5.10;48.00;;;;;;20805000;28;20423;-46
2021/03/17 08:49:10;;;;;;;0.20;0.10;;;5.40;48.30;;;;;;20803158;28;20444;-47
2021/03/17 08:59:17;;;;;;;0.65;0.10;;;5.70;48.30;;;;;;20804767;28;20080;-60
2021/03/17 09:09:19;;;;;;;0.17;0.10;;;6.10;46.60;;;;;;20800068;28;20091;-52
2021/03/17 09:19:22;;;;;;;0.40;0.20;;;6.50;41.20;;;;;;20811848;28;20025;-56
2021/03/17 09:29:24;;;;;;;0.28;0.10;;;6.60;39.30;;;;;;20797139;28;20399;-54
2021/03/17 09:39:26;;;;;;;0.77;0.10;;;6.60;46.40;;;;;;20823525;28;21432;-53
2021/03/17 09:49:31;;;;;;;0.43;0.10;;;7.10;46.20;;;;;;20786613;28;20049;-64
2021/03/17 09:59:40;;;;;;;0.32;0.10;;;7.50;45.40;;;;;;20803909;28;20049;-51
2021/03/17 10:09:44;;;;;;;2.17;0.10;;;7.90;44.80;;;;;;20816661;28;20103;-49
2021/03/17 10:19:55;;;;;;;0.20;0.10;;;8.00;43.20;;;;;;20776904;28;20064;-67
2021/03/17 10:30:11;;;;;;;0.40;0.10;;;8.20;45.50;;;;;;20790527;28;20041;-63
2021/03/17 10:40:18;;;;;;;0.35;0.10;;;8.40;43.80;;;;;;20786704;28;20461;-68
2021/03/17 10:50:31;;;;;;;0.45;0.15;;;8.20;43.30;;;;;;20808056;28;20534;-69
2021/03/17 11:00:33;;;;;;;2.05;0.40;;;8.70;45.10;;;;;;20810856;28;20113;-66
2021/03/17 11:10:46;;;;;;;0.80;0.40;;;9.20;42.10;;;;;;20775967;28;20486;-67
2021/03/17 11:20:49;;;;;;;0.88;0.50;;;9.50;40.90;;;;;;20810166;28;20037;-69
2021/03/17 11:30:58;;;;;;;1.38;0.45;;;9.90;39.50;;;;;;20809080;28;20565;-66
2021/03/17 11:41:00;;;;;;;1.35;0.73;;;10.00;40.70;;;;;;20808458;28;20530;-67
2021/03/17 11:51:06;;;;;;;0.70;0.52;;;10.40;40.30;;;;;;20798537;28;20464;-67
2021/03/17 12:01:54;;;;;;;0.70;0.50;;;10.00;38.40;;;;;;20885680;23;20087;31
2021/03/17 12:11:57;;;;;;;1.80;0.50;;;10.30;36.20;;;;;;20480584;28;20405;-62
2021/03/17 12:21:59;;;;;;;1.33;0.70;;;11.20;37.30;;;;;;20465435;28;20059;-60
2021/03/17 12:32:02;;;;;;;1.00;0.65;;;10.20;37.00;;;;;;20481097;28;20057;-59
2021/03/17 12:42:05;;;;;;;1.15;0.70;;;8.70;37.50;;;;;;20480080;29;20106;-63
2021/03/17 12:52:09;;;;;;;1.65;0.85;;;7.90;41.00;;;;;;20481035;29;20055;-61
2021/03/17 13:02:11;;;;;;;1.40;0.80;;;7.90;40.70;;;;;;20463306;28;20186;-58
2021/03/17 13:12:13;;;;;;;2.03;1.08;;;7.80;43.30;;;;;;20462785;28;20059;-60
2021/03/17 13:22:16;;;;;;;1.65;1.08;;;8.40;41.60;;;;;;20491544;28;20039;-58
2021/03/17 13:32:19;;;;;;;2.30;1.40;;;8.40;41.30;;;;;;20463637;28;20102;-59
2021/03/17 13:42:21;;;;;;;1.52;0.93;;;7.90;39.30;;;;;;20502070;28;20425;-61
2021/03/17 13:52:23;;;;;;;2.10;1.20;;;6.80;45.00;;;;;;20454387;28;20438;-59
2021/03/17 14:02:28;;;;;;;4.30;1.40;;;7.70;43.80;;;;;;20500442;28;20078;-62
2021/03/17 14:12:30;;;;;;;2.50;0.47;;;8.70;42.90;;;;;;20547659;23;20039;-64
2021/03/17 14:22:32;;;;;;;1.50;1.00;;;8.40;40.50;;;;;;20615785;28;20046;-62
2021/03/17 14:32:38;;;;;;;1.87;1.20;;;8.10;40.80;;;;;;20856551;23;20608;31
